Time;durP1;ratioP1;P1;durP2;ratioP2;P2;SDS_P1;SDS_P2;PMS_P1;PMS_P2;Temp;Humidity;BMP_temperature;BMP_pressure;BME280_temperature;BME280_humidity;BME280_pressure;Samples;Min_cycle;Max_cycle;Signal;HPM_P1;HPM_P2
2023/01/12 00:02:19;;;;;;;13.83;10.20;;;;;;;4.08;98.85;95037.88;5053828;28;20453;-86
2023/01/12 00:04:46;;;;;;;12.77;10.00;;;;;;;4.07;99.01;95046.59;5053992;28;20440;-87
2023/01/12 00:07:14;;;;;;;14.50;9.23;;;;;;;3.98;98.98;95041.91;5053936;28;20807;-87
2023/01/12 00:09:41;;;;;;;12.73;7.93;;;;;;;3.96;99.48;95046.34;5053740;28;20476;-86
2023/01/12 00:12:11;;;;;;;12.00;8.60;;;;;;;3.93;99.51;95039.56;5053984;28;20457;-87
2023/01/12 00:14:39;;;;;;;11.43;8.43;;;;;;;3.99;99.71;95040.97;5053977;28;20437;-87
2023/01/12 00:17:07;;;;;;;12.70;8.30;;;;;;;4.09;100.00;95042.13;5053823;28;20803;-87
2023/01/12 00:19:38;;;;;;;11.50;8.50;;;;;;;4.21;99.50;95041.41;5053746;28;20804;-87
2023/01/12 00:22:08;;;;;;;12.13;9.20;;;;;;;4.32;99.17;95035.59;5053928;28;20987;-87
2023/01/12 00:24:37;;;;;;;13.30;8.80;;;;;;;4.35;98.85;95045.84;5061583;28;20453;-87
2023/01/12 00:27:06;;;;;;;17.43;10.43;;;;;;;4.41;97.93;95055.03;5055002;28;20449;-87
2023/01/12 00:29:33;;;;;;;11.70;8.13;;;;;;;4.43;97.79;95053.19;5054012;28;20556;-87
2023/01/12 00:32:00;;;;;;;13.40;8.27;;;;;;;4.49;98.17;95048.44;5053352;28;20457;-87
2023/01/12 00:34:28;;;;;;;9.20;7.00;;;;;;;4.46;97.04;95055.59;5053784;28;20511;-87
2023/01/12 00:36:57;;;;;;;10.87;8.60;;;;;;;4.49;96.76;95053.66;5053330;28;20449;-86
2023/01/12 00:39:23;;;;;;;10.23;8.30;;;;;;;4.39;96.77;95051.69;5053347;28;20449;-87
2023/01/12 00:47:19;;;;;;;12.13;8.17;;;;;;;4.15;97.44;95035.75;5053165;28;20502;-87
2023/01/12 00:49:46;;;;;;;14.63;8.90;;;;;;;4.09;98.42;95038.72;5054213;28;20491;-87
2023/01/12 00:52:17;;;;;;;13.50;8.53;;;;;;;4.11;98.87;95047.25;5057278;28;20947;-87
2023/01/12 00:54:44;;;;;;;16.80;9.17;;;;;;;4.09;98.53;95041.31;5057415;28;20453;-87
2023/01/12 00:57:13;;;;;;;10.50;8.93;;;;;;;4.18;98.75;95043.38;5057088;28;20465;-86
2023/01/12 00:59:40;;;;;;;12.97;8.47;;;;;;;4.28;98.72;95041.91;5057567;28;20449;-87
2023/01/12 01:02:08;;;;;;;12.93;8.80;;;;;;;4.35;97.79;95040.66;5057431;28;20457;-86
2023/01/12 01:04:35;;;;;;;12.17;8.30;;;;;;;4.35;97.45;95049.28;5057015;28;20985;-86
2023/01/12 01:07:01;;;;;;;8.40;7.13;;;;;;;4.40;96.88;95048.16;5057239;28;20943;-86
2023/01/12 01:09:31;;;;;;;9.50;7.70;;;;;;;4.48;97.17;95040.75;5056672;28;20960;-87
2023/01/12 01:11:58;;;;;;;11.23;7.37;;;;;;;4.51;96.44;95045.75;5057094;28;20452;-87
2023/01/12 01:14:25;;;;;;;12.17;8.20;;;;;;;4.58;96.94;95042.72;5057037;28;20460;-87
2023/01/12 01:16:52;;;;;;;10.70;7.80;;;;;;;4.61;95.87;95036.50;5056936;28;20445;-86
2023/01/12 01:19:19;;;;;;;11.47;7.80;;;;;;;4.59;95.27;95038.34;5057135;28;20457;-87
2023/01/12 01:21:46;;;;;;;11.00;8.43;;;;;;;4.49;95.55;95040.66;5057016;28;20481;-86
2023/01/12 01:24:14;;;;;;;9.53;6.90;;;;;;;4.35;96.16;95046.69;5056972;28;20449;-87
2023/01/12 01:26:42;;;;;;;10.43;8.10;;;;;;;4.27;96.20;95046.25;5056977;28;20471;-87
2023/01/12 01:29:10;;;;;;;12.73;8.17;;;;;;;4.28;97.10;95040.13;5056729;28;20437;-87
2023/01/12 01:31:37;;;;;;;8.70;7.40;;;;;;;4.22;97.47;95045.69;5056628;28;20484;-87
2023/01/12 01:34:04;;;;;;;11.90;8.70;;;;;;;4.24;97.61;95056.81;5056832;28;20445;-86
2023/01/12 01:36:31;;;;;;;10.90;8.37;;;;;;;4.33;97.86;95058.88;5056583;28;20453;-86
2023/01/12 01:38:58;;;;;;;8.10;7.10;;;;;;;4.37;97.01;95058.75;5056981;28;20869;-86
2023/01/12 01:41:27;;;;;;;8.10;6.50;;;;;;;4.45;97.99;95056.53;5056488;28;20522;-86
2023/01/12 01:43:58;;;;;;;10.70;7.13;;;;;;;4.41;96.05;95065.41;5056552;28;20790;-86
2023/01/12 01:46:36;;;;;;;10.27;7.43;;;;;;;4.28;96.56;95058.31;5056315;28;20457;-87
2023/01/12 01:49:28;;;;;;;12.43;6.93;;;;;;;4.18;96.90;95070.16;5056172;28;20864;-87
2023/01/12 01:51:59;;;;;;;10.80;8.17;;;;;;;4.15;97.36;95062.56;5056401;28;20524;-87
2023/01/12 01:54:30;;;;;;;13.47;9.03;;;;;;;4.14;97.61;95068.69;5056307;28;20457;-87
2023/01/12 01:56:57;;;;;;;9.93;7.67;;;;;;;4.18;97.45;95059.78;5056654;28;20453;-86
2023/01/12 01:59:29;;;;;;;11.47;7.30;;;;;;;4.24;96.99;95068.97;5056155;28;20507;-86
2023/01/12 02:01:57;;;;;;;8.93;6.43;;;;;;;4.22;96.87;95074.25;5056251;28;20449;-86
2023/01/12 02:04:25;;;;;;;11.20;6.87;;;;;;;4.18;96.57;95070.16;5056118;28;20452;-86
2023/01/12 02:06:53;;;;;;;10.77;8.13;;;;;;;4.08;96.77;95065.59;5055826;28;20489;-86
2023/01/12 02:09:23;;;;;;;9.17;7.40;;;;;;;4.01;98.15;95070.28;5055921;28;20483;-86
2023/01/12 02:17:34;;;;;;;10.80;7.80;;;;;;;3.96;98.44;95070.53;5055871;28;20443;-87
2023/01/12 02:20:40;;;;;;;11.60;7.63;;;;;;;4.01;98.90;95070.28;5056190;28;20453;-87
2023/01/12 02:23:44;;;;;;;12.07;8.17;;;;;;;4.16;99.16;95071.19;5055924;28;20544;-87
2023/01/12 02:27:02;;;;;;;11.40;8.40;;;;;;;4.23;97.75;95072.50;5055755;28;20506;-87
2023/01/12 02:30:01;;;;;;;12.10;8.20;;;;;;;4.31;97.67;95065.94;5055637;28;20468;-87
2023/01/12 02:32:38;;;;;;;10.67;7.70;;;;;;;4.26;96.48;95070.56;5055801;28;20437;-86
2023/01/12 02:35:14;;;;;;;12.53;9.17;;;;;;;4.27;96.31;95064.44;5055684;28;20808;-87
2023/01/12 02:37:48;;;;;;;12.03;8.10;;;;;;;4.36;96.23;95063.09;5055806;28;20449;-86
2023/01/12 02:40:23;;;;;;;11.00;7.60;;;;;;;4.41;96.55;95065.41;5055820;28;20843;-87
2023/01/12 02:42:57;;;;;;;11.80;8.07;;;;;;;4.38;95.96;95060.41;5055238;28;20981;-87
2023/01/12 02:45:33;;;;;;;12.13;8.23;;;;;;;4.49;95.74;95066.63;5055370;28;20447;-86
2023/01/12 02:48:08;;;;;;;9.30;7.43;;;;;;;4.47;95.43;95065.91;5055221;28;20465;-87
2023/01/12 02:50:41;;;;;;;12.63;8.10;;;;;;;4.50;95.40;95070.06;5054911;28;20496;-87
2023/01/12 02:53:14;;;;;;;10.97;8.63;;;;;;;4.53;95.36;95062.09;5055406;28;20968;-87
2023/01/12 02:55:42;;;;;;;12.17;8.10;;;;;;;4.56;95.13;95064.50;5055451;28;20445;-87
2023/01/12 02:58:11;;;;;;;14.13;10.63;;;;;;;4.44;95.53;95060.88;5055267;28;20448;-86
2023/01/12 03:00:40;;;;;;;13.60;8.53;;;;;;;4.48;95.05;95061.53;5054852;28;21051;-86
2023/01/12 03:03:10;;;;;;;13.37;9.13;;;;;;;4.49;95.19;95060.59;5055136;28;20526;-87
2023/01/12 03:05:40;;;;;;;21.30;12.37;;;;;;;4.45;95.08;95052.16;5055157;28;20457;-87
2023/01/12 03:08:09;;;;;;;16.20;11.50;;;;;;;4.43;95.12;95058.38;5055077;28;20484;-86
2023/01/12 03:10:46;;;;;;;13.17;8.70;;;;;;;4.37;94.91;95058.75;5054906;28;20526;-87
2023/01/12 03:13:16;;;;;;;19.43;12.93;;;;;;;4.31;95.52;95054.72;5054526;28;20464;-86
2023/01/12 03:15:46;;;;;;;27.80;15.33;;;;;;;4.16;95.99;95056.44;5054807;28;20467;-86
2023/01/12 03:18:22;;;;;;;17.80;11.67;;;;;;;4.17;96.50;95052.91;5054697;28;20449;-87
2023/01/12 03:20:54;;;;;;;22.37;13.33;;;;;;;4.18;96.82;95057.19;5054544;28;20465;-87
2023/01/12 03:23:23;;;;;;;18.83;11.17;;;;;;;4.14;96.32;95052.25;5054693;28;20454;-86
2023/01/12 03:25:54;;;;;;;13.63;9.40;;;;;;;4.14;97.09;95053.09;5054396;28;20441;-87
2023/01/12 03:28:24;;;;;;;13.50;8.50;;;;;;;4.19;97.56;95050.22;5054504;28;20425;-86
2023/01/12 03:30:56;;;;;;;12.90;9.60;;;;;;;4.25;97.45;95048.09;5054301;28;20477;-87
2023/01/12 03:33:26;;;;;;;21.23;15.10;;;;;;;4.31;96.73;95055.53;5054096;28;20947;-87
2023/01/12 03:36:03;;;;;;;18.40;12.77;;;;;;;4.40;95.88;95053.34;5054334;28;20456;-87
2023/01/12 03:38:37;;;;;;;17.43;12.87;;;;;;;4.47;96.48;95045.13;5054629;28;20440;-86
2023/01/12 03:41:10;;;;;;;16.13;10.17;;;;;;;4.43;95.83;95046.22;5054178;28;20453;-87
2023/01/12 03:43:40;;;;;;;12.63;9.30;;;;;;;4.53;95.92;95051.72;5054277;28;21019;-87
2023/01/12 03:46:12;;;;;;;14.73;10.37;;;;;;;4.47;95.34;95050.31;5054305;28;20461;-87
2023/01/12 03:48:47;;;;;;;13.40;9.57;;;;;;;4.30;96.13;95055.63;5054222;28;20466;-87
2023/01/12 03:51:19;;;;;;;14.17;10.87;;;;;;;4.26;95.98;95054.97;5053952;28;20939;-87
2023/01/12 03:53:49;;;;;;;12.57;8.87;;;;;;;4.27;96.48;95042.81;5054118;28;20453;-87
2023/01/12 03:56:18;;;;;;;14.00;10.87;;;;;;;4.37;96.39;95037.97;5054007;28;20532;-87
2023/01/12 03:58:46;;;;;;;15.13;9.77;;;;;;;4.36;95.93;95044.91;5054154;28;20828;-86
2023/01/12 04:01:13;;;;;;;17.47;12.50;;;;;;;4.36;96.88;95044.91;5053550;28;20495;-86
2023/01/12 04:03:42;;;;;;;17.37;10.33;;;;;;;4.35;96.78;95045.84;5053795;28;20488;-87
2023/01/12 04:06:09;;;;;;;12.77;9.30;;;;;;;4.44;96.18;95052.25;5053271;28;20437;-87
2023/01/12 04:08:36;;;;;;;14.70;10.23;;;;;;;4.52;96.64;95044.84;5053916;28;20453;-87
2023/01/12 04:12:08;;;;;;;14.73;11.43;;;;;;;4.49;95.53;95055.41;5053891;28;20484;-86
2023/01/12 04:13:50;;;;;;;10.93;8.27;;;;;;;4.44;96.34;95050.50;5047882;28;20805;-87
2023/01/12 04:16:17;;;;;;;17.70;13.43;;;;;;;4.45;95.63;95056.53;5033493;28;20445;-87
2023/01/12 04:18:46;;;;;;;20.53;15.90;;;;;;;4.35;95.98;95051.03;5033823;28;20504;-86
2023/01/12 04:23:53;;;;;;;13.97;10.30;;;;;;;4.31;97.12;95047.75;5032721;28;20524;-87
2023/01/12 04:26:20;;;;;;;21.13;13.70;;;;;;;4.39;97.11;95051.69;5033210;28;20465;-87
2023/01/12 04:28:47;;;;;;;20.77;12.40;;;;;;;4.45;96.59;95053.94;5033581;28;20805;-87
2023/01/12 04:31:14;;;;;;;18.13;11.70;;;;;;;4.45;97.05;95046.97;5033481;28;20478;-87
2023/01/12 04:33:41;;;;;;;17.13;12.00;;;;;;;4.58;97.15;95052.25;5033409;28;20500;-87
2023/01/12 04:36:11;;;;;;;16.37;10.37;;;;;;;4.64;95.92;95054.53;5033725;28;20462;-87
2023/01/12 04:38:38;;;;;;;12.27;9.63;;;;;;;4.72;95.96;95052.31;5033965;28;20457;-87
2023/01/12 04:41:05;;;;;;;12.07;9.40;;;;;;;4.76;95.06;95056.38;5033330;28;20446;-86
2023/01/12 04:43:32;;;;;;;13.70;9.90;;;;;;;4.74;94.60;95060.84;5032963;28;20453;-87
2023/01/12 04:45:59;;;;;;;13.20;10.90;;;;;;;4.71;95.03;95061.03;5033385;28;20446;-86
2023/01/12 04:48:26;;;;;;;13.90;9.90;;;;;;;4.77;95.71;95067.63;5033120;28;20509;-87
2023/01/12 04:50:53;;;;;;;14.80;10.00;;;;;;;4.84;95.09;95068.91;5033120;28;20548;-86
2023/01/12 04:53:23;;;;;;;16.17;9.80;;;;;;;4.79;95.04;95066.59;5033303;28;20945;-87
2023/01/12 04:55:50;;;;;;;16.67;11.90;;;;;;;4.88;94.91;95070.41;5033149;28;20445;-86
2023/01/12 04:58:17;;;;;;;18.67;10.03;;;;;;;4.87;94.68;95068.75;5032990;28;20462;-86
2023/01/12 05:00:44;;;;;;;15.40;10.50;;;;;;;4.85;94.49;95066.22;5032906;28;20461;-87
2023/01/12 05:03:12;;;;;;;16.43;10.23;;;;;;;4.84;95.12;95072.34;5032961;28;20450;-87
2023/01/12 05:05:39;;;;;;;12.17;9.60;;;;;;;4.91;95.27;95070.22;5032855;28;20474;-87
2023/01/12 05:10:55;;;;;;;12.03;8.63;;;;;;;4.93;94.94;95082.22;5032558;28;20497;-87
2023/01/12 05:13:23;;;;;;;11.73;8.50;;;;;;;4.88;95.11;95073.84;5033031;28;20861;-87
2023/01/12 05:15:49;;;;;;;12.07;7.97;;;;;;;4.73;94.79;95071.34;5033200;28;20449;-87
2023/01/12 05:18:16;;;;;;;11.67;9.03;;;;;;;4.58;95.35;95073.06;5032635;28;20442;-87
2023/01/12 05:20:43;;;;;;;10.77;7.83;;;;;;;4.68;96.09;95092.41;5032982;28;20486;-87
2023/01/12 05:23:10;;;;;;;16.97;9.70;;;;;;;4.72;96.53;95086.09;5032786;28;20469;-87
2023/01/12 05:25:37;;;;;;;9.57;7.60;;;;;;;4.69;95.81;95091.47;5032856;28;20457;-87
2023/01/12 05:28:05;;;;;;;8.00;6.93;;;;;;;4.65;95.94;95090.00;5033027;28;20472;-87
2023/01/12 05:30:32;;;;;;;11.77;7.33;;;;;;;4.51;96.84;95089.94;5033399;28;20477;-87
2023/01/12 05:32:59;;;;;;;14.07;8.77;;;;;;;4.53;97.04;95095.88;5032715;28;20464;-86
2023/01/12 05:35:26;;;;;;;13.10;8.30;;;;;;;4.51;97.62;95108.97;5033992;28;20435;-87
2023/01/12 05:37:55;;;;;;;10.80;7.37;;;;;;;4.66;98.80;95107.25;5037170;28;20853;-86
2023/01/12 05:40:21;;;;;;;11.50;7.67;;;;;;;4.64;97.11;95109.09;5037501;28;20450;-87
2023/01/12 05:45:36;;;;;;;9.27;7.53;;;;;;;4.58;97.03;95125.03;5037258;28;20418;-87
2023/01/12 05:48:03;;;;;;;14.63;8.97;;;;;;;4.50;97.40;95115.09;5036970;28;20952;-86
2023/01/12 05:50:29;;;;;;;10.83;8.87;;;;;;;4.58;97.24;95123.25;5036915;28;20756;-87
2023/01/12 05:52:56;;;;;;;13.10;9.00;;;;;;;4.62;96.46;95132.56;5036575;28;20482;-86
2023/01/12 05:55:23;;;;;;;11.67;9.60;;;;;;;4.66;96.65;95134.06;5036808;28;20500;-86
2023/01/12 05:57:53;;;;;;;14.13;10.37;;;;;;;4.72;96.64;95124.25;5036961;28;20454;-87
2023/01/12 06:00:20;;;;;;;24.37;14.23;;;;;;;4.66;96.09;95130.66;5037872;28;20456;-87
2023/01/12 06:02:49;;;;;;;20.27;12.40;;;;;;;4.68;96.93;95125.34;5036705;28;20481;-88
2023/01/12 06:05:16;;;;;;;14.03;10.47;;;;;;;4.68;96.75;95114.97;5036632;28;20457;-89
2023/01/12 06:07:43;;;;;;;15.67;10.57;;;;;;;4.76;97.37;95123.13;5036699;28;20438;-89
2023/01/12 06:10:11;;;;;;;17.63;11.67;;;;;;;4.74;97.36;95115.44;5036932;28;20467;-90
2023/01/12 06:22:33;;;;;;;12.57;8.97;;;;;;;4.71;100.00;95114.78;4977410;28;20440;-87
2023/01/12 06:25:00;;;;;;;16.43;9.73;;;;;;;4.63;99.18;95117.84;4995348;28;20448;-87
2023/01/12 06:27:27;;;;;;;10.07;8.27;;;;;;;4.53;99.96;95112.31;4995496;28;20954;-87
2023/01/12 06:29:54;;;;;;;16.33;9.80;;;;;;;4.52;100.00;95110.63;4995382;28;20460;-87
2023/01/12 06:32:20;;;;;;;12.40;9.23;;;;;;;4.59;100.00;95116.31;4994958;28;20858;-86
2023/01/12 06:34:47;;;;;;;16.47;11.70;;;;;;;4.77;100.00;95120.44;5006769;28;20521;-86
2023/01/12 06:37:15;;;;;;;16.17;11.80;;;;;;;4.74;99.00;95125.81;5014522;28;21031;-87
2023/01/12 06:39:43;;;;;;;17.37;11.70;;;;;;;4.81;99.46;95131.50;5014159;28;21243;-87
2023/01/12 06:42:28;;;;;;;22.27;14.70;;;;;;;4.91;99.59;95112.66;5014622;28;20447;-86
2023/01/12 06:44:55;;;;;;;15.30;9.97;;;;;;;4.97;99.15;95127.09;5014262;28;20458;-87
2023/01/12 06:47:22;;;;;;;17.73;9.60;;;;;;;5.25;100.00;95126.28;5013473;28;21012;-88
2023/01/12 06:49:51;;;;;;;25.63;13.40;;;;;;;5.54;100.00;95125.34;5015110;28;20462;-93
2023/01/12 06:52:19;;;;;;;18.33;13.60;;;;;;;5.23;99.12;95128.13;5026426;28;20481;-93
2023/01/12 06:54:47;;;;;;;10.33;7.93;;;;;;;4.84;99.17;95129.56;5046662;28;20461;-87
2023/01/12 06:57:15;;;;;;;13.07;8.53;;;;;;;4.64;100.00;95135.09;5056066;28;20511;-88
2023/01/12 06:59:42;;;;;;;16.17;11.00;;;;;;;4.50;100.00;95129.84;5056033;28;20959;-86
2023/01/12 07:02:12;;;;;;;10.70;8.43;;;;;;;4.44;99.78;95143.19;5055789;28;20484;-88
2023/01/12 07:04:39;;;;;;;20.30;12.70;;;;;;;4.51;100.00;95147.09;5055910;28;20524;-88
2023/01/12 07:07:06;;;;;;;21.37;13.63;;;;;;;4.61;100.00;95141.28;5055928;28;20445;-87
2023/01/12 07:09:33;;;;;;;19.10;14.33;;;;;;;4.66;100.00;95139.28;5056178;28;20503;-87
2023/01/12 07:12:02;;;;;;;18.50;15.23;;;;;;;4.62;100.00;95136.91;5056021;28;20483;-87
2023/01/12 07:14:28;;;;;;;17.00;12.17;;;;;;;4.60;100.00;95130.97;5056003;28;20454;-87
2023/01/12 07:16:55;;;;;;;12.37;9.77;;;;;;;4.47;100.00;95137.81;5055665;28;20456;-88
2023/01/12 07:19:22;;;;;;;12.60;9.10;;;;;;;4.54;100.00;95141.72;5055672;28;20437;-88
2023/01/12 07:21:49;;;;;;;18.77;12.60;;;;;;;4.44;100.00;95143.19;5055739;28;20449;-92
2023/01/12 07:24:16;;;;;;;15.70;10.90;;;;;;;4.53;100.00;95147.84;5055528;28;20916;-92
2023/01/12 07:26:43;;;;;;;14.47;10.67;;;;;;;4.65;100.00;95145.41;5055709;28;20453;-87
2023/01/12 07:29:13;;;;;;;15.70;10.73;;;;;;;4.70;100.00;95141.69;5055167;28;20464;-88
2023/01/12 07:31:40;;;;;;;13.67;10.40;;;;;;;4.78;100.00;95142.06;5054948;28;20487;-85
2023/01/12 07:34:07;;;;;;;12.30;10.40;;;;;;;4.81;99.00;95145.34;5055110;28;20528;-88
2023/01/12 07:36:34;;;;;;;16.53;11.73;;;;;;;4.94;100.00;95148.91;5055689;28;20859;-93
2023/01/12 07:39:00;;;;;;;20.40;15.37;;;;;;;5.11;100.00;95144.47;5055430;28;20461;-93
2023/01/12 07:44:13;;;;;;;13.70;8.87;;;;;;;4.80;99.06;95145.44;5055755;28;20423;-92
2023/01/12 07:46:40;;;;;;;18.93;13.03;;;;;;;4.76;100.00;95149.13;5055994;28;20453;-85
2023/01/12 07:49:07;;;;;;;17.60;12.63;;;;;;;4.66;99.88;95149.69;5055122;28;20449;-87
2023/01/12 07:51:34;;;;;;;19.73;14.63;;;;;;;4.63;100.00;95151.63;5054215;28;20492;-87
2023/01/12 07:54:00;;;;;;;45.30;27.20;;;;;;;4.56;100.00;95150.25;5055126;28;20532;-88
2023/01/12 07:56:27;;;;;;;58.23;30.57;;;;;;;4.59;100.00;95153.53;5054831;28;20476;-87
2023/01/12 07:58:55;;;;;;;18.47;12.73;;;;;;;4.63;100.00;95155.06;5054565;28;20530;-87
2023/01/12 08:01:23;;;;;;;17.23;12.00;;;;;;;4.73;100.00;95160.53;5055325;28;20460;-87
2023/01/12 08:03:50;;;;;;;29.60;18.17;;;;;;;4.72;99.94;95153.69;5054791;28;20516;-87
2023/01/12 08:06:17;;;;;;;17.83;12.87;;;;;;;4.68;99.40;95157.38;5055065;28;20464;-88
2023/01/12 08:08:44;;;;;;;18.80;13.03;;;;;;;4.60;99.81;95159.56;5054698;28;20532;-87
2023/01/12 08:11:11;;;;;;;19.60;12.17;;;;;;;4.63;99.89;95157.66;5054755;28;20944;-87
2023/01/12 08:13:39;;;;;;;23.30;14.50;;;;;;;4.64;100.00;95155.88;5054575;28;20507;-87
2023/01/12 08:16:12;;;;;;;24.13;14.17;;;;;;;4.78;100.00;95162.88;5054695;28;20442;-88
2023/01/12 08:18:45;;;;;;;11.20;7.40;;;;;;;4.80;99.22;95161.84;5054705;28;20837;-87
2023/01/12 08:21:17;;;;;;;12.23;9.30;;;;;;;4.92;99.64;95155.97;5054704;28;20445;-87
2023/01/12 08:23:49;;;;;;;13.53;10.03;;;;;;;5.07;98.53;95150.78;5054592;28;20473;-87
2023/01/12 08:26:22;;;;;;;11.23;9.47;;;;;;;5.06;97.05;95151.69;5054848;28;20995;-87
2023/01/12 08:28:54;;;;;;;20.03;13.20;;;;;;;5.12;96.78;95154.78;5054711;28;20453;-88
2023/01/12 08:31:24;;;;;;;15.50;11.90;;;;;;;5.22;97.00;95149.88;5054897;28;20450;-87
2023/01/12 08:33:53;;;;;;;10.37;7.20;;;;;;;5.29;96.54;95148.56;5054506;28;20568;-87
2023/01/12 08:36:22;;;;;;;12.27;9.43;;;;;;;5.37;96.07;95146.34;5054777;28;20448;-87
2023/01/12 08:38:49;;;;;;;11.07;7.93;;;;;;;5.46;95.42;95143.16;5054496;28;20531;-88
2023/01/12 08:41:36;;;;;;;12.50;7.77;;;;;;;5.41;94.30;95150.44;5054421;28;20461;-88
2023/01/12 08:44:06;;;;;;;16.80;8.90;;;;;;;5.38;95.05;95140.22;5054921;28;20453;-88
2023/01/12 08:46:34;;;;;;;13.73;7.70;;;;;;;5.36;94.70;95144.66;5054668;28;20460;-87
2023/01/12 08:49:04;;;;;;;21.73;9.37;;;;;;;5.40;95.28;95147.91;5054294;28;20502;-87
2023/01/12 08:51:31;;;;;;;10.17;7.70;;;;;;;5.44;95.13;95145.03;5054906;28;20441;-87
2023/01/12 08:53:58;;;;;;;12.50;7.67;;;;;;;5.54;94.76;95156.59;5053971;28;20484;-87
2023/01/12 08:56:25;;;;;;;10.97;8.73;;;;;;;5.53;94.74;95157.50;5054725;28;20514;-87
2023/01/12 08:58:52;;;;;;;12.00;8.40;;;;;;;5.65;95.34;95155.91;5054497;28;20445;-87
2023/01/12 09:01:20;;;;;;;9.57;8.07;;;;;;;5.73;94.76;95160.63;5054256;28;20453;-87
2023/01/12 09:03:48;;;;;;;13.23;8.53;;;;;;;5.73;94.19;95155.44;5054523;28;20533;-87
2023/01/12 09:06:18;;;;;;;8.80;7.90;;;;;;;5.77;94.33;95155.16;5054340;28;20453;-87
2023/01/12 09:08:46;;;;;;;15.00;10.63;;;;;;;5.82;94.28;95162.69;5054157;28;20440;-87
2023/01/12 09:11:14;;;;;;;11.47;9.70;;;;;;;5.86;93.35;95166.78;5056009;28;20461;-88
2023/01/12 09:13:41;;;;;;;11.00;8.23;;;;;;;5.85;93.74;95160.75;5057692;28;20488;-87
2023/01/12 09:16:10;;;;;;;13.70;8.90;;;;;;;5.81;93.90;95164.47;5058075;28;20475;-88
2023/01/12 09:18:38;;;;;;;8.50;7.57;;;;;;;5.77;93.10;95162.13;5058005;28;20457;-88
2023/01/12 09:21:06;;;;;;;9.73;6.93;;;;;;;5.75;93.04;95159.63;5058107;28;20527;-86
2023/01/12 09:23:35;;;;;;;10.17;7.43;;;;;;;5.74;93.43;95154.50;5057853;28;20492;-88
2023/01/12 09:26:04;;;;;;;11.63;8.13;;;;;;;5.66;93.55;95156.75;5057739;28;20453;-88
2023/01/12 09:28:31;;;;;;;11.30;8.20;;;;;;;5.62;93.60;95152.66;5057816;28;20845;-87
2023/01/12 09:31:02;;;;;;;7.33;6.60;;;;;;;5.67;95.02;95154.03;5057762;28;20477;-88
2023/01/12 09:33:30;;;;;;;11.97;8.47;;;;;;;5.60;93.37;95153.59;5057677;28;20483;-87
2023/01/12 09:36:01;;;;;;;9.30;8.20;;;;;;;5.69;94.53;95151.34;5057975;28;20468;-87
2023/01/12 09:38:28;;;;;;;10.47;8.13;;;;;;;5.69;93.04;95146.97;5057718;28;20489;-87
2023/01/12 09:40:58;;;;;;;15.00;10.40;;;;;;;5.66;92.79;95148.94;5057768;28;20449;-87
2023/01/12 09:49:05;;;;;;;10.20;7.00;;;;;;;5.69;92.88;95146.13;5057340;28;20405;-87
2023/01/12 09:51:37;;;;;;;17.57;8.33;;;;;;;5.69;93.37;95136.56;5057949;28;20457;-88
2023/01/12 09:54:05;;;;;;;8.10;6.07;;;;;;;5.69;93.28;95139.16;5057126;28;20508;-87
2023/01/12 09:56:40;;;;;;;8.40;7.27;;;;;;;5.67;92.97;95137.59;5057588;28;20509;-88
2023/01/12 09:59:36;;;;;;;10.13;6.70;;;;;;;5.73;93.70;95137.22;5057499;28;20456;-87
2023/01/12 10:02:03;;;;;;;9.13;7.03;;;;;;;5.79;92.50;95142.06;5057645;28;20531;-87
2023/01/12 10:04:30;;;;;;;9.00;6.90;;;;;;;5.76;92.82;95139.63;5057490;28;20448;-88
2023/01/12 10:06:57;;;;;;;13.23;6.67;;;;;;;5.85;94.16;95126.06;5057222;28;20450;-87
2023/01/12 10:09:25;;;;;;;8.20;6.57;;;;;;;5.84;92.79;95129.59;5057526;28;20472;-88
2023/01/12 10:12:00;;;;;;;9.43;6.47;;;;;;;5.86;92.49;95132.94;5057558;28;20532;-88
2023/01/12 10:14:53;;;;;;;11.40;7.80;;;;;;;5.85;92.10;95131.25;5057234;28;20510;-88
2023/01/12 10:17:31;;;;;;;8.80;8.00;;;;;;;5.96;92.69;95138.41;5057249;28;20832;-87
2023/01/12 10:20:09;;;;;;;7.60;6.23;;;;;;;5.93;92.28;95136.84;5057193;28;20977;-87
2023/01/12 10:22:41;;;;;;;6.47;5.37;;;;;;;5.83;90.89;95143.53;5056999;28;20440;-87
2023/01/12 10:25:27;;;;;;;9.20;6.20;;;;;;;5.85;91.18;95141.69;5057008;28;20421;-88
2023/01/12 10:31:20;;;;;;;6.13;5.53;;;;;;;5.74;91.75;95138.88;5055456;28;20452;-88
2023/01/12 10:34:03;;;;;;;9.63;5.90;;;;;;;5.66;90.96;95138.53;5056441;28;20563;-87
2023/01/12 10:36:30;;;;;;;18.67;10.60;;;;;;;5.66;91.24;95135.91;5056630;28;20469;-81
2023/01/12 10:39:02;;;;;;;12.87;7.80;;;;;;;5.63;91.97;95136.94;5056182;28;20599;-86
2023/01/12 10:41:30;;;;;;;12.43;8.67;;;;;;;5.56;91.33;95125.25;5056207;28;20460;-86
2023/01/12 10:44:16;;;;;;;26.10;14.87;;;;;;;5.71;92.78;95133.88;5056681;28;20454;-87
2023/01/12 10:47:08;;;;;;;23.90;12.60;;;;;;;5.82;91.05;95129.69;5056432;28;20924;-86
2023/01/12 10:49:34;;;;;;;9.80;6.83;;;;;;;5.80;91.05;95134.16;5055512;28;20456;-86
2023/01/12 10:52:08;;;;;;;13.07;9.07;;;;;;;5.77;90.76;95133.47;5054494;28;20832;-86
2023/01/12 10:54:40;;;;;;;11.50;6.50;;;;;;;5.71;90.38;95128.66;5055868;28;20585;-86
2023/01/12 10:57:16;;;;;;;8.30;5.73;;;;;;;5.73;91.00;95125.03;5056747;28;20805;-88
2023/01/12 10:59:51;;;;;;;9.23;6.87;;;;;;;5.80;90.48;95118.53;5056447;28;20488;-87
2023/01/12 11:02:22;;;;;;;9.47;6.57;;;;;;;5.73;91.61;95124.19;5056089;28;20476;-87
2023/01/12 11:04:51;;;;;;;6.90;6.00;;;;;;;5.73;90.12;95122.41;5056468;28;20454;-87
2023/01/12 11:07:24;;;;;;;6.40;5.40;;;;;;;5.61;90.17;95118.00;5056100;28;20825;-87
2023/01/12 11:09:52;;;;;;;9.33;7.90;;;;;;;5.63;90.59;95120.50;5056394;28;20868;-88
2023/01/12 11:12:23;;;;;;;8.93;7.60;;;;;;;5.72;91.55;95104.28;5056047;28;20865;-87
2023/01/12 11:15:02;;;;;;;7.43;6.50;;;;;;;5.79;90.94;95108.22;5056066;28;20453;-87
2023/01/12 11:17:49;;;;;;;15.90;8.37;;;;;;;5.84;90.97;95108.75;5056170;28;20445;-87
2023/01/12 11:20:23;;;;;;;8.87;6.00;;;;;;;5.73;90.20;95108.56;5055855;28;20804;-88
2023/01/12 11:22:54;;;;;;;10.10;6.80;;;;;;;5.72;91.65;95112.94;5055509;28;20499;-87
2023/01/12 11:25:23;;;;;;;11.77;5.77;;;;;;;5.75;91.10;95106.69;5055635;28;20450;-88
2023/01/12 11:27:55;;;;;;;6.87;6.13;;;;;;;5.77;91.00;95103.06;5055944;28;20449;-87
2023/01/12 11:30:25;;;;;;;6.23;5.57;;;;;;;5.74;91.01;95103.25;5055775;28;20932;-87
2023/01/12 11:32:59;;;;;;;6.90;4.40;;;;;;;5.69;91.15;95104.50;5055277;28;20481;-87
2023/01/12 11:35:34;;;;;;;5.80;4.83;;;;;;;5.69;91.37;95107.09;5054956;28;20437;-87
2023/01/12 11:38:10;;;;;;;4.57;4.17;;;;;;;5.66;91.67;95097.72;5055219;28;20488;-87
2023/01/12 11:40:39;;;;;;;12.17;7.23;;;;;;;5.70;91.49;95095.75;5055082;28;20452;-87
2023/01/12 11:46:12;;;;;;;7.57;6.13;;;;;;;5.97;91.47;95101.84;5054973;28;20903;-87
2023/01/12 11:48:48;;;;;;;7.30;6.10;;;;;;;6.02;91.55;95096.34;5054777;28;20562;-87
2023/01/12 11:51:14;;;;;;;8.57;6.30;;;;;;;6.21;90.57;95094.25;5055658;28;20821;-87
2023/01/12 11:53:42;;;;;;;10.93;8.13;;;;;;;6.26;90.31;95086.13;5054482;28;20477;-87
2023/01/12 11:56:19;;;;;;;10.77;7.47;;;;;;;6.36;90.28;95087.19;5055323;28;20517;-88
2023/01/12 11:58:55;;;;;;;7.73;6.93;;;;;;;6.32;88.06;95085.72;5054722;28;20450;-87
2023/01/12 12:01:27;;;;;;;7.90;7.00;;;;;;;6.37;88.50;95086.28;5055265;28;20843;-87
2023/01/12 12:04:00;;;;;;;6.87;5.63;;;;;;;6.35;88.27;95080.31;5054500;28;20461;-87
2023/01/12 12:07:05;;;;;;;10.30;7.50;;;;;;;6.32;87.74;95090.94;5054847;28;20468;-87
2023/01/12 12:09:53;;;;;;;9.53;6.97;;;;;;;6.31;89.01;95086.66;4974203;28;20441;-86
2023/01/12 12:12:30;;;;;;;11.40;9.00;;;;;;;6.19;87.89;95083.09;4897690;29;20500;-88
2023/01/12 12:15:09;;;;;;;16.00;10.53;;;;;;;6.20;88.47;95083.00;4897959;29;20483;-87
2023/01/12 12:17:49;;;;;;;22.07;12.97;;;;;;;6.22;88.58;95078.53;4897771;29;20446;-88
2023/01/12 12:20:27;;;;;;;26.00;12.80;;;;;;;6.21;89.24;95078.63;4897727;29;20502;-88
2023/01/12 12:23:10;;;;;;;15.07;10.23;;;;;;;6.26;88.31;95079.16;4897424;29;20492;-87
2023/01/12 12:25:48;;;;;;;13.13;8.43;;;;;;;6.43;88.95;95078.06;4897656;29;20446;-87
2023/01/12 12:28:48;;;;;;;10.00;7.03;;;;;;;6.46;88.05;95081.31;4898172;29;20504;-88
2023/01/12 12:31:30;;;;;;;9.60;5.97;;;;;;;6.43;87.87;95078.91;4866799;29;20479;-87
2023/01/12 12:34:13;;;;;;;6.53;5.90;;;;;;;6.45;88.11;95076.19;4897769;29;20488;-90